createdAt,value
2022-12-09T00:02:35.000Z,42.53
2022-12-09T00:07:35.000Z,43.64
2022-12-09T00:12:35.000Z,43.07
2022-12-09T00:17:35.000Z,41.86
2022-12-09T00:22:35.000Z,43.69
2022-12-09T00:27:35.000Z,41.14
2022-12-09T00:32:35.000Z,42.56
2022-12-09T00:37:35.000Z,41.44
2022-12-09T00:42:35.000Z,41.81
2022-12-09T00:47:36.000Z,41.81
2022-12-09T00:52:35.000Z,41.17
2022-12-09T00:57:35.000Z,43.14
2022-12-09T01:02:36.000Z,41.99
2022-12-09T01:07:35.000Z,40.5
2022-12-09T01:12:34.000Z,39.76
2022-12-09T01:17:35.000Z,43.77
2022-12-09T01:22:35.000Z,43.42
2022-12-09T01:27:35.000Z,42.93
2022-12-09T01:32:36.000Z,42.68
2022-12-09T01:37:34.000Z,44.13
2022-12-09T01:47:35.000Z,45.87
2022-12-09T01:52:35.000Z,43.32
2022-12-09T01:57:35.000Z,43.32
2022-12-09T02:02:35.000Z,40.91
2022-12-09T02:07:35.000Z,40.24
2022-12-09T02:12:34.000Z,41
2022-12-09T02:17:35.000Z,43.99
2022-12-09T02:22:34.000Z,41.78
2022-12-09T02:27:35.000Z,42.46
2022-12-09T02:32:34.000Z,41.91
2022-12-09T02:37:34.000Z,41.54
2022-12-09T02:42:35.000Z,43.92
2022-12-09T02:47:35.000Z,46.58
2022-12-09T02:52:35.000Z,42.96
2022-12-09T02:57:36.000Z,44.3
2022-12-09T03:02:35.000Z,43.18
2022-12-09T03:07:34.000Z,45.47
2022-12-09T03:12:35.000Z,45.47
2022-12-09T03:17:35.000Z,45.22
2022-12-09T03:22:35.000Z,46.56
2022-12-09T03:27:34.000Z,44.55
2022-12-09T03:32:35.000Z,44.76
2022-12-09T03:42:35.000Z,47.8
2022-12-09T03:47:35.000Z,44.75
2022-12-09T03:52:34.000Z,48.71
2022-12-09T03:57:35.000Z,49.77
2022-12-09T04:02:35.000Z,49.8
2022-12-09T04:07:35.000Z,50.25
2022-12-09T04:12:35.000Z,50.52
2022-12-09T04:17:35.000Z,51.23
2022-12-09T04:22:34.000Z,51.23
2022-12-09T04:27:34.000Z,51.7
2022-12-09T04:32:35.000Z,52.54
2022-12-09T04:37:35.000Z,51.74
2022-12-09T04:42:35.000Z,51.94
2022-12-09T04:47:35.000Z,53.34
2022-12-09T04:52:34.000Z,51.46
2022-12-09T04:57:35.000Z,53.71
2022-12-09T05:02:35.000Z,54.01
2022-12-09T05:07:34.000Z,54.33
2022-12-09T05:12:35.000Z,53.02
2022-12-09T05:17:36.000Z,54.14
2022-12-09T05:22:35.000Z,55.45
2022-12-09T05:27:35.000Z,54.27
2022-12-09T05:32:35.000Z,55.38
2022-12-09T05:37:35.000Z,55.38
2022-12-09T05:42:34.000Z,54.65
2022-12-09T05:47:35.000Z,55.46
2022-12-09T05:52:35.000Z,53.85
2022-12-09T05:57:34.000Z,54.08
2022-12-09T06:02:36.000Z,54.03
2022-12-09T06:07:35.000Z,53.31
2022-12-09T06:12:35.000Z,52.45
2022-12-09T06:17:35.000Z,53.49
2022-12-09T06:22:35.000Z,51.92
2022-12-09T06:27:34.000Z,50.04
2022-12-09T06:32:35.000Z,48.64
2022-12-09T06:37:35.000Z,50.85
2022-12-09T06:42:34.000Z,50.78
2022-12-09T06:47:35.000Z,52.08
2022-12-09T06:57:35.000Z,50.01
2022-12-09T07:07:35.000Z,48.86
2022-12-09T07:12:34.000Z,49.59
2022-12-09T07:17:34.000Z,50.33
2022-12-09T07:22:35.000Z,49.1
2022-12-09T07:27:35.000Z,49.1
2022-12-09T07:32:35.000Z,49.17
2022-12-09T07:37:35.000Z,49.92
2022-12-09T07:42:34.000Z,48.07
2022-12-09T07:47:35.000Z,48.39
2022-12-09T07:52:34.000Z,50.84
2022-12-09T07:57:35.000Z,51.79
2022-12-09T08:02:35.000Z,51.04
2022-12-09T08:07:35.000Z,48.98
2022-12-09T08:12:34.000Z,48.83
2022-12-09T08:17:35.000Z,50.65
2022-12-09T08:22:35.000Z,49.2
2022-12-09T08:27:34.000Z,47.18
2022-12-09T08:32:35.000Z,45.16
2022-12-09T08:37:35.000Z,46.09
2022-12-09T08:42:35.000Z,46.09
2022-12-09T08:47:35.000Z,48.38
2022-12-09T08:52:35.000Z,46.61
2022-12-09T08:57:35.000Z,45.3
2022-12-09T09:02:35.000Z,42.67
2022-12-09T09:07:35.000Z,45.1
2022-12-09T09:17:36.000Z,44.54
2022-12-09T09:22:34.000Z,44.83
2022-12-09T09:27:34.000Z,44.04
2022-12-09T09:32:35.000Z,42.43
2022-12-09T09:37:35.000Z,42.81
2022-12-09T09:42:34.000Z,41.31
2022-12-09T09:47:35.000Z,42.33
2022-12-09T09:52:35.000Z,38.57
2022-12-09T09:57:35.000Z,39.27
2022-12-09T10:02:36.000Z,37.31
2022-12-09T10:07:36.000Z,36.73
2022-12-09T10:12:36.000Z,36.73
2022-12-09T10:17:35.000Z,36.35
2022-12-09T10:22:35.000Z,38.84
2022-12-09T10:27:35.000Z,38.43
2022-12-09T10:32:35.000Z,37.97
2022-12-09T10:42:43.000Z,36.4
2022-12-09T10:47:35.000Z,36.4
2022-12-09T10:52:35.000Z,34.43
2022-12-09T10:57:36.000Z,36.04
2022-12-09T11:02:35.000Z,32.68
2022-12-09T11:07:36.000Z,36.51
2022-12-09T11:12:35.000Z,34.31
2022-12-09T11:17:35.000Z,33.91
2022-12-09T11:22:35.000Z,38.18
2022-12-09T11:27:35.000Z,36.42
2022-12-09T11:32:34.000Z,35.81
2022-12-09T11:37:35.000Z,33.83
2022-12-09T11:42:35.000Z,35.05
2022-12-09T11:47:35.000Z,37.92
2022-12-09T11:52:35.000Z,36.5
2022-12-09T11:57:35.000Z,37.56
2022-12-09T12:02:34.000Z,37.56
2022-12-09T12:07:35.000Z,35.28
2022-12-09T12:12:34.000Z,36.54
2022-12-09T12:17:34.000Z,35.02
2022-12-09T12:22:35.000Z,36.96
2022-12-09T12:27:34.000Z,33.19
2022-12-09T12:32:35.000Z,36.95
2022-12-09T12:37:35.000Z,36.22
2022-12-09T12:42:35.000Z,33.38
2022-12-09T12:47:35.000Z,32.53
2022-12-09T12:53:05.000Z,34.59
2022-12-09T12:57:34.000Z,34.35
2022-12-09T13:07:34.000Z,34.59
2022-12-09T13:12:34.000Z,36.16
2022-12-09T13:17:34.000Z,35.67
2022-12-09T13:22:35.000Z,36.55
2022-12-09T13:27:35.000Z,35.81
2022-12-09T13:32:34.000Z,35.7
2022-12-09T13:37:34.000Z,36.33
2022-12-09T13:42:34.000Z,36.33
2022-12-09T13:47:35.000Z,38.83
2022-12-09T13:57:34.000Z,33.52
2022-12-09T14:07:35.000Z,35.17
2022-12-09T14:12:35.000Z,33.44
2022-12-09T14:17:34.000Z,31.98
2022-12-09T14:22:35.000Z,33.71
2022-12-09T14:27:34.000Z,32.95
2022-12-09T14:32:35.000Z,35.1
2022-12-09T14:37:35.000Z,34.18
2022-12-09T14:42:35.000Z,30.8
2022-12-09T14:47:35.000Z,32.95
2022-12-09T14:52:34.000Z,32.95
2022-12-09T14:57:35.000Z,32.21
2022-12-09T15:02:35.000Z,34.05
2022-12-09T15:07:34.000Z,34.19
2022-12-09T15:12:35.000Z,32.79
2022-12-09T15:17:35.000Z,34.06
2022-12-09T15:22:35.000Z,31.05
2022-12-09T15:27:35.000Z,35.43
2022-12-09T15:32:35.000Z,32.8
2022-12-09T15:37:35.000Z,32.52
2022-12-09T15:42:35.000Z,33.1
2022-12-09T15:47:35.000Z,33.1
2022-12-09T15:52:34.000Z,31.38
2022-12-09T16:02:34.000Z,32.11
2022-12-09T16:07:35.000Z,32.11
2022-12-09T16:12:34.000Z,34.31
2022-12-09T16:17:34.000Z,32.78
2022-12-09T16:22:35.000Z,30.27
2022-12-09T16:27:35.000Z,31.91
2022-12-09T16:32:35.000Z,30.74
2022-12-09T16:37:34.000Z,33.06
2022-12-09T16:42:35.000Z,36.19
2022-12-09T16:47:35.000Z,33.5
2022-12-09T16:52:35.000Z,35.19
2022-12-09T16:57:34.000Z,36.97
2022-12-09T17:02:35.000Z,36.04
2022-12-09T17:12:35.000Z,36
2022-12-09T17:17:35.000Z,36.89
2022-12-09T17:22:35.000Z,35.73
2022-12-09T17:27:35.000Z,39.02
2022-12-09T17:32:35.000Z,39.02
2022-12-09T17:37:35.000Z,42.89
2022-12-09T17:42:35.000Z,51.36
2022-12-09T17:47:35.000Z,46.15
2022-12-09T17:52:35.000Z,45.53
2022-12-09T17:57:35.000Z,46.69
2022-12-09T18:02:35.000Z,45.85
2022-12-09T18:07:34.000Z,47.26
2022-12-09T18:12:35.000Z,52.69
2022-12-09T18:17:35.000Z,48.52
2022-12-09T18:22:35.000Z,45.55
2022-12-09T18:27:34.000Z,39.59
2022-12-09T18:32:35.000Z,41.58
2022-12-09T18:37:35.000Z,41.39
2022-12-09T18:42:35.000Z,38.76
2022-12-09T18:47:34.000Z,38.76
2022-12-09T18:52:35.000Z,36.91
2022-12-09T18:57:40.000Z,42.64
2022-12-09T19:02:35.000Z,43.97
2022-12-09T19:07:42.000Z,45.75
2022-12-09T19:12:58.000Z,50.32
2022-12-09T19:17:35.000Z,59.01
2022-12-09T19:22:35.000Z,64.76
2022-12-09T19:27:34.000Z,64.48
2022-12-09T19:33:02.000Z,62.54
2022-12-09T19:37:35.000Z,56.31
2022-12-09T19:47:35.000Z,53.26
2022-12-09T19:52:34.000Z,50.99
2022-12-09T19:57:34.000Z,51.91
2022-12-09T20:02:35.000Z,52.89
2022-12-09T20:07:35.000Z,53.89
2022-12-09T20:12:35.000Z,46.94
2022-12-09T20:17:34.000Z,49.69
2022-12-09T20:22:35.000Z,51.17
2022-12-09T20:27:35.000Z,52.76
2022-12-09T20:32:35.000Z,51.33
2022-12-09T20:37:34.000Z,53.24
2022-12-09T20:42:35.000Z,53.08
2022-12-09T20:47:34.000Z,53.08
2022-12-09T20:52:34.000Z,51.48
2022-12-09T20:57:35.000Z,50.24
2022-12-09T21:02:34.000Z,52.46
2022-12-09T21:07:35.000Z,48.87
2022-12-09T21:12:34.000Z,44.62
2022-12-09T21:17:34.000Z,43.82
2022-12-09T21:22:35.000Z,45.09
2022-12-09T21:27:35.000Z,41.69
2022-12-09T21:32:35.000Z,41.43
2022-12-09T21:37:35.000Z,41.77
2022-12-09T21:42:35.000Z,42.16
2022-12-09T21:47:34.000Z,40.74
2022-12-09T21:52:35.000Z,52.55
2022-12-09T21:57:35.000Z,52.55
2022-12-09T22:02:35.000Z,62.18
2022-12-09T22:07:35.000Z,68.47
2022-12-09T22:12:34.000Z,70.3
2022-12-09T22:17:34.000Z,70.94
2022-12-09T22:22:35.000Z,68.91
2022-12-09T22:27:34.000Z,67.52
2022-12-09T22:32:35.000Z,67.28
2022-12-09T22:37:53.000Z,66.88
2022-12-09T22:42:34.000Z,64.66
2022-12-09T22:47:35.000Z,64.89
2022-12-09T22:52:34.000Z,64.85
2022-12-09T22:57:35.000Z,66.3
2022-12-09T23:02:35.000Z,66.01
2022-12-09T23:07:34.000Z,65.9
2022-12-09T23:12:34.000Z,67.68
2022-12-09T23:17:34.000Z,67.68
2022-12-09T23:22:34.000Z,64.78
2022-12-09T23:27:34.000Z,65.49
2022-12-09T23:32:35.000Z,62.59
2022-12-09T23:37:35.000Z,62.57
2022-12-09T23:42:35.000Z,62.65
2022-12-09T23:47:35.000Z,62.97
2022-12-09T23:52:34.000Z,61.92
2022-12-09T23:57:35.000Z,63.82
